Terminal Aerodrome Forecast
Issued by NWS Newport/Morehead City, NC

Home | Current Version | Previous Version | Graphics & Text | Print | Product List | Glossary On
Versions: 1 2 3 4 5 6 7 8 9 10 11 12 13 14 15 16 17 18 19 20 21
176
FTUS42 KMHX 231304 AAB
TAFEWN
TAF AMD
KEWN 231304Z 2313/2412 19007KT P6SM VCSH SCT008 BKN020
      TEMPO 2313/2316 3SM -RA BKN008
     FM231900 20010G18KT 5SM SHRA SCT008 OVC030
     FM240600 24005KT P6SM VCSH OVC007=

USA.gov is the U.S. government's official web portal to all federal, state and local government web resources and services.